Time;durP1;ratioP1;P1;durP2;ratioP2;P2;SDS_P1;SDS_P2;PMS_P1;PMS_P2;Temp;Humidity;BMP_temperature;BMP_pressure;BME280_temperature;BME280_humidity;BME280_pressure;Samples;Min_cycle;Max_cycle;Signal;HPM_P1;HPM_P2
2021/03/05 00:00:33;;;;;;;31.92;9.93;;;1.70;99.90;;;;;;5061323;28;20045;-64
2021/03/05 00:02:59;;;;;;;36.53;9.63;;;1.70;99.90;;;;;;5061211;28;20045;-64
2021/03/05 00:05:25;;;;;;;38.88;11.23;;;1.70;99.90;;;;;;5060916;28;20703;-64
2021/03/05 00:07:51;;;;;;;33.47;11.02;;;1.60;99.90;;;;;;5052497;28;20141;-64
2021/03/05 00:10:20;;;;;;;33.65;10.57;;;1.60;99.90;;;;;;5062084;28;20047;-64
2021/03/05 00:12:46;;;;;;;42.15;10.50;;;1.60;99.90;;;;;;5061106;28;20083;-64
2021/03/05 00:15:12;;;;;;;39.83;12.10;;;1.60;99.90;;;;;;5050680;28;20128;-64
2021/03/05 00:17:39;;;;;;;34.88;11.55;;;1.60;99.90;;;;;;5034295;28;20037;-65
2021/03/05 00:20:11;;;;;;;40.80;11.23;;;1.60;99.90;;;;;;5047041;28;20036;-65
2021/03/05 00:22:36;;;;;;;39.58;11.15;;;1.70;99.90;;;;;;5047063;28;20037;-64
2021/03/05 00:25:03;;;;;;;51.20;12.68;;;1.80;99.90;;;;;;5047551;28;20048;-64
2021/03/05 00:27:29;;;;;;;46.38;12.45;;;1.70;99.90;;;;;;5046911;28;20055;-65
2021/03/05 00:29:54;;;;;;;51.92;12.93;;;1.70;99.90;;;;;;5047862;28;20033;-63
2021/03/05 00:32:20;;;;;;;45.05;12.10;;;1.70;99.90;;;;;;5044828;28;20060;-64
2021/03/05 00:34:45;;;;;;;45.50;11.48;;;1.60;99.90;;;;;;5036917;28;20048;-64
2021/03/05 00:37:11;;;;;;;34.13;11.30;;;1.70;99.90;;;;;;5046815;28;20033;-64
2021/03/05 00:39:36;;;;;;;53.13;13.23;;;1.70;99.90;;;;;;5047680;28;20051;-65
2021/03/05 00:42:04;;;;;;;42.67;13.15;;;1.70;99.90;;;;;;5047011;28;20036;-64
2021/03/05 00:44:30;;;;;;;34.38;12.18;;;1.70;99.90;;;;;;5047403;28;20064;-64
2021/03/05 00:46:56;;;;;;;42.50;11.88;;;1.70;99.90;;;;;;5044583;28;20040;-64
2021/03/05 00:49:21;;;;;;;39.72;11.35;;;1.60;99.90;;;;;;5046789;28;20040;-64
2021/03/05 00:51:47;;;;;;;43.53;12.48;;;1.70;99.90;;;;;;5046104;28;20228;-64
2021/03/05 00:54:12;;;;;;;33.25;11.13;;;1.70;99.90;;;;;;5047712;28;20067;-65
2021/03/05 00:56:38;;;;;;;38.15;10.50;;;1.70;99.90;;;;;;5045213;28;20041;-64
2021/03/05 00:59:04;;;;;;;37.13;11.02;;;1.80;99.90;;;;;;5046135;28;20044;-65
2021/03/05 01:01:29;;;;;;;47.35;12.48;;;1.70;99.90;;;;;;5044022;28;20060;-64
2021/03/05 01:03:55;;;;;;;39.97;11.73;;;1.70;99.90;;;;;;5046830;28;20037;-64
2021/03/05 01:06:20;;;;;;;40.65;12.32;;;1.80;99.90;;;;;;5037196;28;20127;-65
2021/03/05 01:08:46;;;;;;;44.90;12.35;;;1.70;99.90;;;;;;5027415;28;20033;-64
2021/03/05 01:11:12;;;;;;;26.50;10.73;;;1.80;99.90;;;;;;5032726;28;20055;-65
2021/03/05 01:13:37;;;;;;;39.97;11.30;;;1.80;99.90;;;;;;5030666;28;20065;-65
2021/03/05 01:16:03;;;;;;;39.13;11.70;;;1.80;99.90;;;;;;5029594;28;20037;-65
2021/03/05 01:18:29;;;;;;;37.42;11.02;;;1.70;99.90;;;;;;5045638;28;20060;-64
2021/03/05 01:20:54;;;;;;;34.35;11.20;;;1.60;99.90;;;;;;5043940;28;20050;-64
2021/03/05 01:23:20;;;;;;;38.30;11.98;;;1.70;99.90;;;;;;5039841;28;20038;-65
2021/03/05 01:25:46;;;;;;;29.45;11.02;;;1.70;99.90;;;;;;5024834;28;20119;-64
2021/03/05 01:28:12;;;;;;;26.63;9.50;;;1.70;99.90;;;;;;5027596;28;20493;-64
2021/03/05 01:30:38;;;;;;;32.47;11.88;;;1.80;99.90;;;;;;5025495;28;20033;-64
2021/03/05 01:33:05;;;;;;;28.85;10.95;;;1.90;99.90;;;;;;5035050;28;20102;-65
2021/03/05 01:35:30;;;;;;;28.90;10.93;;;1.80;99.90;;;;;;5046451;28;20041;-64
2021/03/05 01:37:56;;;;;;;29.80;10.10;;;1.90;99.90;;;;;;5046060;28;20035;-64
2021/03/05 01:40:26;;;;;;;27.02;9.77;;;1.90;99.90;;;;;;5046801;28;20505;-65
2021/03/05 01:42:52;;;;;;;38.58;11.82;;;1.90;99.90;;;;;;5046369;28;20615;-64
2021/03/05 01:45:22;;;;;;;26.13;10.15;;;1.70;99.90;;;;;;5045100;28;20059;-65
2021/03/05 01:47:51;;;;;;;23.73;9.95;;;1.80;99.90;;;;;;5045117;28;20033;-65
2021/03/05 01:50:29;;;;;;;20.92;8.65;;;1.70;99.90;;;;;;5046107;28;20536;-65
2021/03/05 01:53:01;;;;;;;30.25;9.57;;;1.70;99.90;;;;;;5045840;28;20459;-64
2021/03/05 01:55:27;;;;;;;41.58;10.55;;;1.70;99.90;;;;;;5062611;22;20040;-80
2021/03/05 01:57:55;;;;;;;23.77;9.45;;;1.60;99.90;;;;;;5075844;28;20040;-78
2021/03/05 02:00:49;;;;;;;70.57;12.02;;;1.70;99.90;;;;;;5068873;28;20060;-79
2021/03/05 02:03:16;;;;;;;119.18;13.57;;;1.70;99.90;;;;;;5070022;28;20098;-80
2021/03/05 02:05:42;;;;;;;160.95;16.73;;;1.70;99.90;;;;;;5070045;28;20070;-79
2021/03/05 02:08:09;;;;;;;200.80;16.95;;;1.50;99.90;;;;;;5060274;28;20040;-80
2021/03/05 02:10:34;;;;;;;54.53;10.50;;;1.40;99.90;;;;;;5050146;28;20051;-79
2021/03/05 02:13:00;;;;;;;61.67;12.55;;;1.40;99.90;;;;;;5070147;28;20115;-79
2021/03/05 02:15:27;;;;;;;76.00;14.27;;;1.30;99.90;;;;;;5069395;28;20635;-80
2021/03/05 02:18:06;;;;;;;26.92;10.23;;;1.30;99.90;;;;;;5070370;28;20051;-80
2021/03/05 02:21:07;;;;;;;22.20;8.00;;;1.30;99.90;;;;;;5076802;28;20485;-80
2021/03/05 02:23:56;;;;;;;90.93;13.68;;;1.40;99.90;;;;;;5050734;28;20041;-80
2021/03/05 02:26:25;;;;;;;55.35;11.20;;;1.40;99.90;;;;;;5049716;28;20055;-80
2021/03/05 02:29:11;;;;;;;128.77;13.48;;;1.40;99.90;;;;;;5065773;28;20039;-80
2021/03/05 02:31:47;;;;;;;160.68;17.77;;;1.40;99.90;;;;;;5068894;28;20048;-80
2021/03/05 02:34:36;;;;;;;56.72;11.15;;;1.50;99.90;;;;;;5064181;28;20086;-80
2021/03/05 02:37:09;;;;;;;290.75;20.40;;;1.40;99.90;;;;;;5061366;28;20043;-80
2021/03/05 02:40:01;;;;;;;184.85;15.60;;;1.30;99.90;;;;;;5064272;28;20115;-80
2021/03/05 02:42:31;;;;;;;126.80;13.13;;;1.30;99.90;;;;;;5055822;28;20127;-79
2021/03/05 02:45:10;;;;;;;243.80;20.88;;;1.30;99.90;;;;;;5069876;28;20044;-80
2021/03/05 02:47:37;;;;;;;37.20;10.57;;;1.30;99.90;;;;;;5071077;28;20131;-79
2021/03/05 02:50:04;;;;;;;63.10;12.38;;;1.40;99.90;;;;;;5062614;28;20036;-80
2021/03/05 02:52:32;;;;;;;60.72;11.70;;;1.30;99.90;;;;;;5051449;28;20059;-79
2021/03/05 02:55:03;;;;;;;51.28;12.15;;;1.30;99.90;;;;;;5051348;28;20136;-80
2021/03/05 02:57:32;;;;;;;85.43;13.88;;;1.30;99.90;;;;;;5057488;28;20757;-79
2021/03/05 03:00:02;;;;;;;48.22;11.43;;;1.20;99.90;;;;;;5070783;28;20036;-79
2021/03/05 03:02:28;;;;;;;25.60;10.65;;;1.20;99.90;;;;;;5068970;28;20094;-80
2021/03/05 03:04:57;;;;;;;22.63;10.38;;;1.30;99.90;;;;;;5070215;28;20039;-79
2021/03/05 03:07:25;;;;;;;20.52;10.77;;;1.20;99.90;;;;;;5070088;28;20517;-80
2021/03/05 03:09:51;;;;;;;20.55;10.20;;;1.20;99.90;;;;;;5066576;28;20147;-80
2021/03/05 03:12:19;;;;;;;25.30;11.82;;;1.10;99.90;;;;;;5066040;28;20032;-80
2021/03/05 03:14:47;;;;;;;22.98;12.05;;;1.00;99.90;;;;;;5067801;28;20046;-80
2021/03/05 03:17:15;;;;;;;20.70;11.30;;;1.00;99.90;;;;;;5068638;28;20047;-80
2021/03/05 03:19:46;;;;;;;29.92;12.18;;;0.90;99.90;;;;;;5069930;28;20048;-79
2021/03/05 03:22:12;;;;;;;31.10;12.20;;;0.90;99.90;;;;;;5070166;28;20044;-80
2021/03/05 03:24:38;;;;;;;27.45;13.10;;;0.90;99.90;;;;;;5069651;28;20040;-81
2021/03/05 03:27:04;;;;;;;26.80;14.18;;;1.00;99.90;;;;;;5087615;28;20483;-79
2021/03/05 03:29:30;;;;;;;32.67;14.75;;;0.90;99.90;;;;;;5069383;28;20082;-79
2021/03/05 03:31:56;;;;;;;27.58;13.48;;;0.90;99.90;;;;;;5067796;28;20724;-80
2021/03/05 03:34:22;;;;;;;26.50;13.48;;;1.00;99.90;;;;;;5070147;28;20078;-80
2021/03/05 03:36:50;;;;;;;28.95;14.40;;;1.00;99.90;;;;;;5069039;28;20062;-79
2021/03/05 03:39:15;;;;;;;33.03;14.32;;;1.00;99.90;;;;;;5064648;28;20059;-79
2021/03/05 03:41:41;;;;;;;51.83;15.55;;;0.90;99.90;;;;;;5070212;28;20036;-79
2021/03/05 03:44:09;;;;;;;31.00;14.48;;;1.00;99.90;;;;;;5069293;28;20044;-79
2021/03/05 03:46:40;;;;;;;32.65;14.68;;;1.00;99.90;;;;;;5068679;28;20040;-79
2021/03/05 03:49:10;;;;;;;30.40;14.63;;;0.90;99.90;;;;;;5075339;28;20048;-79
2021/03/05 03:51:41;;;;;;;44.38;16.17;;;0.90;99.90;;;;;;5069640;28;20074;-79
2021/03/05 03:54:11;;;;;;;44.40;16.50;;;0.80;99.90;;;;;;5073976;28;20071;-79
2021/03/05 03:56:40;;;;;;;34.25;16.08;;;0.90;99.90;;;;;;5072415;28;20051;-79
2021/03/05 03:59:07;;;;;;;35.03;15.70;;;0.80;99.90;;;;;;5072025;28;20040;-80
2021/03/05 04:01:34;;;;;;;33.25;15.13;;;0.70;99.90;;;;;;5073260;28;20039;-80
2021/03/05 04:04:02;;;;;;;29.63;14.15;;;0.70;99.90;;;;;;5073152;28;20040;-79
2021/03/05 04:06:30;;;;;;;34.45;12.80;;;0.70;99.90;;;;;;5062537;28;20032;-79
2021/03/05 04:08:58;;;;;;;25.98;12.85;;;0.70;99.90;;;;;;5068097;28;20040;-80
2021/03/05 04:11:26;;;;;;;29.48;13.52;;;0.70;99.90;;;;;;5073004;28;20044;-79
2021/03/05 04:13:52;;;;;;;27.38;13.13;;;0.70;99.90;;;;;;5072818;28;20048;-79
2021/03/05 04:16:18;;;;;;;24.77;13.27;;;0.80;99.90;;;;;;5072031;28;20071;-79
2021/03/05 04:18:44;;;;;;;32.70;13.90;;;0.80;99.90;;;;;;5073934;28;20078;-79
2021/03/05 04:21:20;;;;;;;26.85;13.25;;;0.90;99.90;;;;;;5062643;28;20455;-79
2021/03/05 04:23:45;;;;;;;26.92;12.65;;;0.90;99.90;;;;;;5072839;28;20110;-79
2021/03/05 04:26:11;;;;;;;26.13;13.75;;;0.90;99.90;;;;;;5072940;28;20052;-79
2021/03/05 04:28:37;;;;;;;26.23;13.23;;;1.00;99.90;;;;;;5067128;28;20041;-79
2021/03/05 04:31:03;;;;;;;24.45;13.05;;;0.90;99.90;;;;;;5052871;28;20060;-79
2021/03/05 04:33:29;;;;;;;25.42;13.20;;;0.90;99.90;;;;;;5061759;28;20047;-79
2021/03/05 04:35:55;;;;;;;28.67;13.93;;;0.90;99.90;;;;;;5091232;28;20054;-79
2021/03/05 04:38:21;;;;;;;26.98;12.93;;;0.90;99.90;;;;;;5072340;28;20143;-79
2021/03/05 04:40:47;;;;;;;24.52;12.35;;;0.80;99.90;;;;;;5073212;28;20123;-80
2021/03/05 04:43:14;;;;;;;27.92;12.73;;;0.90;99.90;;;;;;5070214;28;20040;-79
2021/03/05 04:45:41;;;;;;;22.88;12.38;;;0.90;99.90;;;;;;5070053;28;20033;-80
2021/03/05 04:48:07;;;;;;;24.23;12.77;;;0.80;99.90;;;;;;5077981;28;20093;-79
2021/03/05 04:50:34;;;;;;;23.42;12.77;;;0.80;99.90;;;;;;5070008;28;20032;-81
2021/03/05 04:53:00;;;;;;;23.05;12.25;;;0.70;99.90;;;;;;5070033;28;20087;-80
2021/03/05 04:55:26;;;;;;;22.92;12.27;;;0.70;99.90;;;;;;5068923;28;20049;-80
2021/03/05 04:57:52;;;;;;;25.92;12.27;;;0.60;99.90;;;;;;5070362;28;20128;-80
2021/03/05 05:00:19;;;;;;;24.98;10.57;;;0.70;99.90;;;;;;5072689;28;20145;-80
2021/03/05 05:02:45;;;;;;;24.42;10.77;;;0.70;99.90;;;;;;5072604;28;20036;-80
2021/03/05 05:05:11;;;;;;;22.92;11.27;;;0.50;99.90;;;;;;5073180;28;20036;-80
2021/03/05 05:07:37;;;;;;;20.92;10.70;;;0.50;99.90;;;;;;5072552;28;20040;-80
2021/03/05 05:10:04;;;;;;;19.90;10.52;;;0.60;99.90;;;;;;5072515;28;20036;-80
2021/03/05 05:12:30;;;;;;;18.85;10.32;;;0.50;99.90;;;;;;5069770;28;20036;-79
2021/03/05 05:14:55;;;;;;;17.52;9.90;;;0.50;99.90;;;;;;5069772;28;20040;-79
2021/03/05 05:17:21;;;;;;;18.25;9.43;;;0.60;99.90;;;;;;5055063;28;20131;-80
2021/03/05 05:19:47;;;;;;;17.77;9.70;;;0.60;99.90;;;;;;5071967;28;20043;-79
2021/03/05 05:22:13;;;;;;;23.17;10.95;;;0.60;99.90;;;;;;5072082;28;20048;-79
2021/03/05 05:24:39;;;;;;;18.40;9.93;;;0.50;99.90;;;;;;5071756;28;20036;-80
2021/03/05 05:27:05;;;;;;;19.67;10.05;;;0.60;99.90;;;;;;5071565;28;20050;-80
2021/03/05 05:29:31;;;;;;;20.45;9.98;;;0.60;99.90;;;;;;5071755;28;20036;-79
2021/03/05 05:31:57;;;;;;;19.50;9.38;;;0.60;99.90;;;;;;5070971;28;20032;-79
2021/03/05 05:34:23;;;;;;;18.08;9.00;;;0.70;99.90;;;;;;5071687;28;20706;-79
2021/03/05 05:36:48;;;;;;;19.50;10.30;;;0.70;99.90;;;;;;5070970;28;20032;-79
2021/03/05 05:39:15;;;;;;;21.77;10.25;;;0.70;99.90;;;;;;5071628;28;20111;-80
2021/03/05 05:41:41;;;;;;;17.73;9.75;;;0.60;99.90;;;;;;5072007;28;20043;-79
2021/03/05 05:44:08;;;;;;;20.60;10.50;;;0.60;99.90;;;;;;5071283;28;20040;-78
2021/03/05 05:46:34;;;;;;;19.50;9.43;;;0.60;99.90;;;;;;5070803;28;20093;-79
2021/03/05 05:49:02;;;;;;;19.13;9.68;;;0.60;99.90;;;;;;5075100;28;20036;-79
2021/03/05 05:51:33;;;;;;;23.73;11.73;;;0.70;99.90;;;;;;5070514;28;20075;-80
2021/03/05 05:54:15;;;;;;;18.85;9.93;;;0.60;99.90;;;;;;5071462;28;20040;-79
2021/03/05 05:56:43;;;;;;;24.02;9.73;;;0.60;99.90;;;;;;5077800;28;20083;-80
2021/03/05 05:59:09;;;;;;;19.45;9.80;;;0.60;99.90;;;;;;5071593;28;20393;-79
2021/03/05 06:01:36;;;;;;;18.17;9.65;;;0.50;99.90;;;;;;5070259;28;20043;-79
2021/03/05 06:04:03;;;;;;;24.27;11.88;;;0.60;99.90;;;;;;5070634;28;20449;-79
2021/03/05 06:06:32;;;;;;;21.35;10.40;;;0.50;99.90;;;;;;5080273;28;20135;-80
2021/03/05 06:08:58;;;;;;;20.67;9.85;;;0.50;99.90;;;;;;5059656;28;20036;-80
2021/03/05 06:11:35;;;;;;;20.60;10.40;;;0.60;99.90;;;;;;5059105;28;20036;-80
2021/03/05 06:14:05;;;;;;;21.00;10.25;;;0.50;99.90;;;;;;5054982;28;20496;-79
2021/03/05 06:16:32;;;;;;;22.13;11.02;;;0.50;99.90;;;;;;5071002;28;20043;-80
2021/03/05 06:18:59;;;;;;;19.30;10.10;;;0.60;99.90;;;;;;5061731;28;20032;-79
2021/03/05 06:21:52;;;;;;;21.77;11.05;;;0.60;99.90;;;;;;5064109;28;20057;-79
2021/03/05 06:24:19;;;;;;;20.42;10.13;;;0.50;99.90;;;;;;5065898;28;20048;-79
2021/03/05 06:26:52;;;;;;;23.70;10.07;;;0.50;99.90;;;;;;5070549;28;20054;-79
2021/03/05 06:29:20;;;;;;;22.33;10.75;;;0.40;99.90;;;;;;5071380;28;20044;-79
2021/03/05 06:32:00;;;;;;;21.08;10.02;;;0.40;99.90;;;;;;5071585;28;20032;-79
2021/03/05 06:34:27;;;;;;;15.88;9.52;;;0.40;99.90;;;;;;5070261;28;20501;-79
2021/03/05 06:37:01;;;;;;;25.23;10.25;;;0.40;99.90;;;;;;5071093;28;20104;-79
2021/03/05 06:39:28;;;;;;;19.70;9.40;;;0.40;99.90;;;;;;5071648;28;20040;-79
2021/03/05 06:42:08;;;;;;;20.50;9.65;;;0.40;99.90;;;;;;5072401;28;20058;-79
2021/03/05 06:44:40;;;;;;;19.30;9.77;;;0.50;99.90;;;;;;5071876;28;20090;-79
2021/03/05 06:47:12;;;;;;;21.15;10.32;;;0.40;99.90;;;;;;5063912;28;20683;-79
2021/03/05 06:49:40;;;;;;;23.27;10.20;;;0.30;99.90;;;;;;5062921;28;20081;-79
2021/03/05 06:52:07;;;;;;;16.70;9.35;;;0.40;99.90;;;;;;5070769;28;20058;-79
2021/03/05 06:54:38;;;;;;;18.60;9.10;;;0.40;99.90;;;;;;5071080;28;20056;-80
2021/03/05 06:57:05;;;;;;;18.35;9.73;;;0.30;99.90;;;;;;5070181;28;20036;-80
2021/03/05 06:59:42;;;;;;;16.83;9.45;;;0.40;99.90;;;;;;5070071;28;20138;-82
2021/03/05 07:02:16;;;;;;;21.42;9.85;;;0.30;99.90;;;;;;5087233;28;20032;-79
2021/03/05 07:04:49;;;;;;;19.92;9.82;;;0.40;99.90;;;;;;5087143;28;20863;-78
2021/03/05 07:07:19;;;;;;;20.55;9.90;;;0.30;99.90;;;;;;5074145;28;20474;-78
2021/03/05 07:09:47;;;;;;;17.50;8.52;;;0.40;99.90;;;;;;5082043;28;20032;-78
2021/03/05 07:12:15;;;;;;;16.45;8.32;;;0.40;99.90;;;;;;5063625;28;20036;-79
2021/03/05 07:14:43;;;;;;;16.73;8.52;;;0.40;99.90;;;;;;5069575;28;20524;-78
2021/03/05 07:17:10;;;;;;;17.98;8.73;;;0.30;99.90;;;;;;5068859;28;20044;-79
2021/03/05 07:19:37;;;;;;;16.40;7.75;;;0.20;99.90;;;;;;5064834;28;20044;-78
2021/03/05 07:22:07;;;;;;;17.50;8.07;;;0.30;99.90;;;;;;5069773;28;20086;-79
2021/03/05 07:24:36;;;;;;;13.68;7.80;;;0.40;99.90;;;;;;5070330;28;20109;-78
2021/03/05 07:27:03;;;;;;;14.98;7.85;;;0.40;99.90;;;;;;5073779;28;20044;-78
2021/03/05 07:29:33;;;;;;;12.20;6.93;;;0.40;99.90;;;;;;5074120;28;20123;-78
2021/03/05 07:32:24;;;;;;;14.20;7.10;;;0.30;99.90;;;;;;5068205;28;20110;-80
2021/03/05 07:35:02;;;;;;;14.98;7.63;;;0.40;99.90;;;;;;5078093;28;20080;-79
2021/03/05 07:37:41;;;;;;;13.43;7.18;;;0.40;99.90;;;;;;5059162;28;20123;-78
2021/03/05 07:40:13;;;;;;;17.38;6.90;;;0.40;99.90;;;;;;5091850;28;20075;-79
2021/03/05 07:42:39;;;;;;;18.05;8.35;;;0.30;99.90;;;;;;5073577;28;20040;-78
2021/03/05 07:45:09;;;;;;;11.95;7.03;;;0.20;99.90;;;;;;5091461;28;20040;-78
2021/03/05 07:47:47;;;;;;;14.48;7.20;;;0.10;99.90;;;;;;5091335;28;20054;-78
2021/03/05 07:50:15;;;;;;;15.45;8.30;;;0.10;99.90;;;;;;5065764;28;20530;-79
2021/03/05 07:52:41;;;;;;;15.23;6.75;;;0.30;99.90;;;;;;5089458;28;20048;-78
2021/03/05 07:55:08;;;;;;;11.93;6.05;;;0.30;99.90;;;;;;5066431;28;20760;-78
2021/03/05 07:57:34;;;;;;;12.95;7.07;;;0.30;99.90;;;;;;5056573;28;20116;-78
2021/03/05 08:00:01;;;;;;;14.23;8.02;;;0.30;99.90;;;;;;5073702;28;20115;-79
2021/03/05 08:02:56;;;;;;;14.88;6.93;;;0.40;99.90;;;;;;5072914;28;20128;-79
2021/03/05 08:05:34;;;;;;;12.60;5.93;;;0.50;99.90;;;;;;5066609;28;20628;-80
2021/03/05 08:08:11;;;;;;;17.00;6.40;;;0.50;99.90;;;;;;5074160;28;20043;-80
2021/03/05 08:10:40;;;;;;;16.23;7.00;;;0.50;99.90;;;;;;5073522;28;20058;-78
2021/03/05 08:13:31;;;;;;;11.00;6.53;;;0.40;99.90;;;;;;5073666;28;20070;-77
2021/03/05 08:16:27;;;;;;;16.40;6.20;;;0.30;99.90;;;;;;5070939;28;20082;-77
2021/03/05 08:19:05;;;;;;;13.73;5.78;;;0.40;99.90;;;;;;5075442;28;20110;-78
2021/03/05 08:22:01;;;;;;;14.73;6.15;;;0.40;99.90;;;;;;5058257;28;20124;-78
2021/03/05 08:24:29;;;;;;;11.82;5.75;;;0.40;99.90;;;;;;5068935;28;20054;-78
2021/03/05 08:27:05;;;;;;;10.05;5.20;;;0.80;99.90;;;;;;5091239;28;20146;-77
2021/03/05 08:29:50;;;;;;;12.77;6.13;;;1.20;99.90;;;;;;5073700;28;20044;-78
2021/03/05 08:32:34;;;;;;;12.05;6.25;;;1.30;99.90;;;;;;5073285;28;20131;-80
2021/03/05 08:35:05;;;;;;;12.85;6.75;;;1.30;99.90;;;;;;5059656;28;20033;-78
2021/03/05 08:37:37;;;;;;;14.82;7.20;;;1.10;99.90;;;;;;5053293;28;20036;-78
2021/03/05 08:40:21;;;;;;;9.75;6.03;;;1.10;99.90;;;;;;5055993;28;20480;-79
2021/03/05 08:42:49;;;;;;;10.05;6.13;;;1.00;99.90;;;;;;5062284;28;20082;-78
2021/03/05 08:45:29;;;;;;;13.10;7.05;;;1.00;99.90;;;;;;5088876;28;20248;-79
2021/03/05 08:48:00;;;;;;;14.45;7.63;;;0.90;99.90;;;;;;5072273;28;20492;-78
2021/03/05 08:50:35;;;;;;;14.05;6.50;;;0.80;99.90;;;;;;5063044;28;20052;-79
2021/03/05 08:53:15;;;;;;;11.98;6.50;;;1.10;99.90;;;;;;5071931;28;20070;-78
2021/03/05 08:55:42;;;;;;;9.98;5.60;;;1.40;99.90;;;;;;5071691;28;20043;-79
2021/03/05 08:58:08;;;;;;;15.15;6.25;;;1.70;99.90;;;;;;5072407;28;20040;-79
2021/03/05 09:00:36;;;;;;;12.20;6.10;;;1.80;99.90;;;;;;5071822;28;20036;-79
2021/03/05 09:03:12;;;;;;;10.90;5.68;;;1.80;99.90;;;;;;5071637;28;20039;-79
2021/03/05 09:05:41;;;;;;;12.70;7.47;;;1.60;99.90;;;;;;5065954;28;20055;-78
2021/03/05 09:08:12;;;;;;;12.90;6.10;;;1.40;99.90;;;;;;5067576;28;20689;-78
2021/03/05 09:10:46;;;;;;;19.58;10.88;;;1.40;99.90;;;;;;5053693;28;20033;-78
2021/03/05 09:13:46;;;;;;;16.08;8.30;;;1.40;99.90;;;;;;5071970;28;20087;-79
2021/03/05 09:16:12;;;;;;;13.55;6.13;;;1.50;99.90;;;;;;5048865;28;20110;-79
2021/03/05 09:18:40;;;;;;;11.48;5.78;;;1.10;99.90;;;;;;5076559;28;20048;-79
2021/03/05 09:21:08;;;;;;;13.30;6.05;;;1.30;99.90;;;;;;5059206;28;20035;-80
2021/03/05 09:23:38;;;;;;;10.27;6.20;;;1.10;99.90;;;;;;5056609;28;20074;-79
2021/03/05 09:26:15;;;;;;;13.55;5.53;;;1.00;99.90;;;;;;5088672;28;20040;-79
2021/03/05 09:28:49;;;;;;;9.75;5.70;;;0.90;99.90;;;;;;5071529;28;20040;-79
2021/03/05 09:31:17;;;;;;;13.00;6.13;;;1.00;99.90;;;;;;5084035;28;20036;-80
2021/03/05 09:33:45;;;;;;;11.25;5.65;;;0.90;99.90;;;;;;5060054;28;20051;-78
2021/03/05 09:36:15;;;;;;;11.57;5.95;;;0.90;99.90;;;;;;5061424;28;20044;-79
2021/03/05 09:38:44;;;;;;;12.15;5.93;;;1.00;99.90;;;;;;5074724;28;20110;-78
2021/03/05 09:41:41;;;;;;;12.30;6.07;;;1.20;99.90;;;;;;5058898;28;20110;-78
2021/03/05 09:44:09;;;;;;;11.27;6.00;;;1.40;99.90;;;;;;5069285;28;20048;-79
2021/03/05 09:46:38;;;;;;;9.68;5.57;;;1.40;99.90;;;;;;5087423;28;20036;-79
2021/03/05 09:49:21;;;;;;;12.10;5.28;;;1.40;99.90;;;;;;5084518;28;20448;-80
2021/03/05 09:51:47;;;;;;;13.55;5.22;;;1.60;99.90;;;;;;5052144;28;20444;-79
2021/03/05 09:54:13;;;;;;;12.43;6.38;;;1.90;99.90;;;;;;5051058;28;20127;-80
2021/03/05 09:56:48;;;;;;;11.35;5.65;;;2.30;99.90;;;;;;5079263;28;20120;-81
2021/03/05 09:59:14;;;;;;;8.55;4.97;;;2.60;99.90;;;;;;5068335;28;20039;-80
2021/03/05 10:01:42;;;;;;;9.98;5.35;;;2.50;99.90;;;;;;5069532;28;20036;-79
2021/03/05 10:04:10;;;;;;;13.57;5.82;;;2.00;99.90;;;;;;5062618;28;20045;-80
2021/03/05 10:06:38;;;;;;;7.20;5.00;;;2.00;99.90;;;;;;5066472;28;20377;-79
2021/03/05 10:09:12;;;;;;;9.93;5.47;;;2.10;99.90;;;;;;5065358;28;20374;-80
2021/03/05 10:11:42;;;;;;;12.25;5.35;;;2.00;99.90;;;;;;5057049;28;20036;-80
2021/03/05 10:14:10;;;;;;;12.20;6.22;;;2.10;99.90;;;;;;5065850;28;20048;-82
2021/03/05 10:16:40;;;;;;;11.38;5.30;;;1.80;99.90;;;;;;5069566;28;20081;-80
2021/03/05 10:19:09;;;;;;;10.02;5.85;;;1.80;99.90;;;;;;5081506;28;20032;-81
2021/03/05 10:21:41;;;;;;;11.07;5.70;;;1.90;99.90;;;;;;5060186;28;20040;-81
2021/03/05 10:24:09;;;;;;;9.25;5.90;;;2.10;99.90;;;;;;5081731;28;20040;-81
2021/03/05 10:26:35;;;;;;;9.68;5.30;;;1.90;99.90;;;;;;5081193;28;20051;-81
2021/03/05 10:29:05;;;;;;;15.18;6.47;;;1.90;99.90;;;;;;5064258;28;20115;-80
2021/03/05 10:31:49;;;;;;;13.27;6.38;;;1.70;99.90;;;;;;5069543;28;20044;-81
2021/03/05 10:34:22;;;;;;;12.65;5.78;;;1.60;99.90;;;;;;5078839;28;20119;-81
2021/03/05 10:36:49;;;;;;;9.60;5.40;;;1.70;99.90;;;;;;5067752;28;20078;-81
2021/03/05 10:39:15;;;;;;;12.27;5.70;;;1.70;99.90;;;;;;5055785;28;20033;-81
2021/03/05 10:41:53;;;;;;;8.70;5.65;;;2.10;99.90;;;;;;5065805;28;20039;-80
2021/03/05 10:44:19;;;;;;;11.98;6.15;;;2.30;99.90;;;;;;5053801;28;20039;-80
2021/03/05 10:46:45;;;;;;;10.50;6.32;;;2.10;99.90;;;;;;5049996;28;20037;-80
2021/03/05 10:49:11;;;;;;;15.60;6.35;;;2.00;99.90;;;;;;5074301;28;20036;-81
2021/03/05 10:51:38;;;;;;;12.07;6.72;;;1.50;99.90;;;;;;5083244;28;20040;-80
2021/03/05 10:54:04;;;;;;;8.77;5.13;;;1.40;99.90;;;;;;5070607;28;20047;-79
2021/03/05 10:56:32;;;;;;;12.10;6.13;;;1.40;99.90;;;;;;5068438;28;20044;-80
2021/03/05 10:58:59;;;;;;;14.07;6.35;;;1.40;99.90;;;;;;5063839;28;20086;-80
2021/03/05 11:01:25;;;;;;;9.52;5.95;;;1.60;99.90;;;;;;5069677;28;20138;-81
2021/03/05 11:03:50;;;;;;;10.18;5.68;;;1.80;99.90;;;;;;5070012;28;20155;-81
2021/03/05 11:06:17;;;;;;;8.35;5.20;;;2.20;99.90;;;;;;5088187;28;20403;-83
2021/03/05 11:08:43;;;;;;;15.88;6.50;;;2.50;99.90;;;;;;5069641;28;20043;-79
2021/03/05 11:11:09;;;;;;;10.30;5.95;;;2.50;99.90;;;;;;5082918;28;20028;-82
2021/03/05 11:13:35;;;;;;;11.15;6.18;;;2.00;99.90;;;;;;5051063;28;20032;-81
2021/03/05 11:16:01;;;;;;;11.30;6.22;;;1.80;99.90;;;;;;5069142;28;20051;-81
2021/03/05 11:18:26;;;;;;;10.82;6.07;;;1.60;99.90;;;;;;5068729;28;20048;-81
2021/03/05 11:20:52;;;;;;;12.00;6.40;;;1.80;99.90;;;;;;5061912;28;20039;-81
2021/03/05 11:23:18;;;;;;;13.27;5.75;;;2.20;99.90;;;;;;5069913;28;20076;-81
2021/03/05 11:25:44;;;;;;;7.65;4.97;;;2.40;99.90;;;;;;5070743;28;20067;-81
2021/03/05 11:28:09;;;;;;;9.63;5.53;;;2.20;99.90;;;;;;5070233;28;20051;-81
2021/03/05 11:30:35;;;;;;;11.23;6.38;;;2.00;99.90;;;;;;5087037;28;20040;-81
2021/03/05 11:33:01;;;;;;;11.15;6.28;;;1.80;99.60;;;;;;5071270;28;20039;-81
2021/03/05 11:35:26;;;;;;;10.57;6.18;;;1.80;99.90;;;;;;5067810;28;20072;-81
2021/03/05 11:37:52;;;;;;;7.60;4.95;;;2.00;99.90;;;;;;5086949;28;20036;-81
2021/03/05 11:40:18;;;;;;;12.82;6.13;;;2.10;96.80;;;;;;5070494;28;20068;-81
2021/03/05 11:42:44;;;;;;;9.43;5.65;;;2.30;99.90;;;;;;5088258;28;20044;-81
2021/03/05 11:45:11;;;;;;;16.42;6.63;;;2.50;99.90;;;;;;5069770;28;20036;-81
2021/03/05 11:47:36;;;;;;;9.23;5.32;;;2.60;99.30;;;;;;5070563;28;20382;-81
2021/03/05 11:50:03;;;;;;;9.48;5.93;;;2.40;96.90;;;;;;5069407;28;20090;-82
2021/03/05 11:52:29;;;;;;;11.43;6.13;;;2.20;97.70;;;;;;5070746;28;20036;-82
2021/03/05 11:54:56;;;;;;;10.57;5.40;;;2.20;99.10;;;;;;5087918;28;20051;-82
2021/03/05 11:57:22;;;;;;;12.18;5.90;;;2.40;99.90;;;;;;5070198;28;20048;-82
2021/03/05 11:59:49;;;;;;;13.02;6.15;;;2.60;99.90;;;;;;5050611;28;20036;-81
2021/03/05 12:02:14;;;;;;;9.45;6.03;;;2.70;99.90;;;;;;5049775;28;20122;-81
2021/03/05 12:04:40;;;;;;;9.85;6.15;;;2.40;98.90;;;;;;5068397;28;20441;-82
2021/03/05 12:07:06;;;;;;;14.68;7.15;;;2.20;98.90;;;;;;5049741;28;20713;-81
2021/03/05 12:09:32;;;;;;;13.95;6.93;;;2.10;98.90;;;;;;5065214;28;20037;-81
2021/03/05 12:11:59;;;;;;;14.43;7.57;;;1.90;99.50;;;;;;5071239;28;20067;-81
2021/03/05 12:14:25;;;;;;;15.45;6.35;;;1.80;99.90;;;;;;5073486;28;20040;-80
2021/03/05 12:16:50;;;;;;;12.48;6.82;;;2.00;99.90;;;;;;5072748;28;20048;-81
2021/03/05 12:19:16;;;;;;;13.02;6.40;;;2.20;98.80;;;;;;5078965;28;20040;-82
2021/03/05 12:21:42;;;;;;;10.77;5.72;;;2.40;99.90;;;;;;5072877;28;20114;-81
2021/03/05 12:24:08;;;;;;;8.05;4.40;;;2.40;97.60;;;;;;5073720;28;20040;-81
2021/03/05 12:26:34;;;;;;;11.65;4.75;;;2.20;95.20;;;;;;5073721;28;20085;-80
2021/03/05 12:28:59;;;;;;;9.35;5.45;;;2.00;94.40;;;;;;5073280;28;20032;-81
2021/03/05 12:31:25;;;;;;;13.48;5.25;;;2.00;96.10;;;;;;5072890;28;20040;-81
2021/03/05 12:33:51;;;;;;;11.52;5.28;;;2.30;96.70;;;;;;5059712;28;20032;-81
2021/03/05 12:36:17;;;;;;;9.48;4.65;;;2.40;95.80;;;;;;5073431;28;20054;-81
2021/03/05 12:38:44;;;;;;;11.35;4.15;;;2.30;94.60;;;;;;5073241;28;20044;-82
2021/03/05 12:41:10;;;;;;;9.18;3.65;;;2.30;95.00;;;;;;5073019;28;20484;-82
2021/03/05 12:43:36;;;;;;;8.65;4.53;;;2.10;94.90;;;;;;5071950;28;20047;-81
2021/03/05 12:46:02;;;;;;;9.88;3.90;;;2.00;95.40;;;;;;5071595;28;20036;-79
2021/03/05 12:48:28;;;;;;;6.47;3.42;;;1.90;94.90;;;;;;5078141;28;20130;-78
2021/03/05 12:50:54;;;;;;;8.20;3.70;;;2.00;93.50;;;;;;5072604;28;20119;-78
2021/03/05 12:53:19;;;;;;;9.93;3.00;;;2.30;92.70;;;;;;5090526;28;20163;-78